Aeroporto :
LOGIN :

Iscrizione | Disclaimer

   EN    FR    IT 

 










Sommario :    VFR   VFR Marginale   IFR   IFR Intensivo   IFR Molto Intensivo
Visibilità : 
Base nubi : 
>= 8 km
>= 3000ft
5 / 8 km
1000 / 3000 ft
1500m / 5 km
500 / 1000 ft
800 / 1500m
200 / 500 ft
< 800m
< 200 ft
Simboli :   Temporali  Nebbia  Neve Forte  Precipitazioni Forti  Vento > 20 kt
SIGMETs :   Varie  Temporali  Ghiacco  Turbolenza  Onda orograficha  Ceneri Vulcaniche






- Altitudine del aeroporto : 15 ft
- Codice IATA : BHD


EGAC - George Best Belfast City

ULTIMO METAR :
  • 241150Z AUTO 24015G25KT 220V280 9999 BKN011/// BKN016/// 07/05 Q0994

METARs OBSOLETI :
  • 241120Z AUTO 25015KT 9999 SCT012/// BKN017/// 08/06 Q0994
  • 241050Z AUTO 21009KT 170V270 9999 SCT006/// BKN010/// 07/07 Q0994
  • 241020Z 16005KT 110V240 5000 -RADZ FEW002 BKN004 OVC007 05/05 Q0994
  • 240950Z VRB03KT 4000 -RA SCT003 BKN005 BKN008 05/05 Q0994
  • 240920Z 00000KT 4000 -RA SCT003 BKN005 BKN008 04/04 Q0994

TAF TAF EGAC
Valido dal 24 a 12 ore il 24 a 21 ore UTC


241103Z 2412/2421 25010KT 3000 BR -DZ BKN003
BECMG 2412/2415 28022G35KT 9999 NSW SCT025
BECMG 2415/2418 27015KT
TEMPO 2418/2421 27018G28KT
PROB30
TEMPO 2418/2421 7000 SHRA
ATIS : +44 02890 935 124



MetMap, La meteo Aeronautica in un colpo d'occhio ! - Copyright ORBIFLY Dicembre 2007 - Disclaimer

ORBIFLY MET'MAP TEAM :

Programmazione e sviluppo : Alexandra Zaïnal
Concezione : Baudouin d'Aumeries
Aiuto per la programmazione : Marc-Olivier Méhu
Supporto tecnico e logistico : Manuel Goepfert
Aiuto per la traduzione : Arnaldo La Scala

Contatto : metmap@orbifly.com




FONTI E CREDITI :

   NOAA